<?xml version="1.0" encoding="utf-8"?>
<gpx xmlns:xsi="http://www.w3.org/2001/XMLSchema-instance" xmlns:xsd="http://www.w3.org/2001/XMLSchema" version="1.1" creator="Shapelink.com" xmlns="http://www.topografix.com/GPX/1/1" xmlns:gpxtpx="http://www.garmin.com/xmlschemas/TrackPointExtension/v1">
  <metadata>
    <name>Löpning 8.74 km, 2014-05-27</name>
    <desc></desc>
    <author><name>Carl Grundberg</name></author> 
    <time>2014-05-27T17:39:28Z</time>
  </metadata>
  <trk>
    <name>Löpning 8.74 km, 2014-05-27</name>
    <trkseg>
      <trkpt lat="56.3454422" lon="13.6364251">
        <ele>100.115</ele>
        <time>2014-05-27T17:39:28Z</time>
      </trkpt>
      <trkpt lat="56.3454592" lon="13.636353">
        <ele>103.479</ele>
        <time>2014-05-27T17:39:30Z</time>
      </trkpt>
      <trkpt lat="56.34544" lon="13.6361421">
        <ele>108.286</ele>
        <time>2014-05-27T17:39:35Z</time>
      </trkpt>
      <trkpt lat="56.3454209" lon="13.6358636">
        <ele>110.208</ele>
        <time>2014-05-27T17:39:41Z</time>
      </trkpt>
      <trkpt lat="56.3453923" lon="13.6356662">
        <ele>110.208</ele>
        <time>2014-05-27T17:39:45Z</time>
      </trkpt>
      <trkpt lat="56.3453151" lon="13.6354325">
        <ele>110.689</ele>
        <time>2014-05-27T17:39:51Z</time>
      </trkpt>
      <trkpt lat="56.3452122" lon="13.6353088">
        <ele>110.689</ele>
        <time>2014-05-27T17:39:56Z</time>
      </trkpt>
      <trkpt lat="56.3451494" lon="13.6352095">
        <ele>110.208</ele>
        <time>2014-05-27T17:39:59Z</time>
      </trkpt>
      <trkpt lat="56.3450648" lon="13.635027">
        <ele>110.208</ele>
        <time>2014-05-27T17:40:04Z</time>
      </trkpt>
      <trkpt lat="56.3450043" lon="13.6349317">
        <ele>110.208</ele>
        <time>2014-05-27T17:40:07Z</time>
      </trkpt>
      <trkpt lat="56.3449309" lon="13.6348079">
        <ele>110.208</ele>
        <time>2014-05-27T17:40:11Z</time>
      </trkpt>
      <trkpt lat="56.3448676" lon="13.6347131">
        <ele>109.728</ele>
        <time>2014-05-27T17:40:14Z</time>
      </trkpt>
      <trkpt lat="56.3447096" lon="13.6345697">
        <ele>109.247</ele>
        <time>2014-05-27T17:40:20Z</time>
      </trkpt>
      <trkpt lat="56.3446762" lon="13.6345054">
        <ele>109.247</ele>
        <time>2014-05-27T17:40:22Z</time>
      </trkpt>
      <trkpt lat="56.3445359" lon="13.6343547">
        <ele>109.247</ele>
        <time>2014-05-27T17:40:28Z</time>
      </trkpt>
      <trkpt lat="56.344511" lon="13.6343303">
        <ele>109.247</ele>
        <time>2014-05-27T17:40:29Z</time>
      </trkpt>
      <trkpt lat="56.3443787" lon="13.6342447">
        <ele>110.689</ele>
        <time>2014-05-27T17:40:34Z</time>
      </trkpt>
      <trkpt lat="56.3442455" lon="13.6341905">
        <ele>112.131</ele>
        <time>2014-05-27T17:40:39Z</time>
      </trkpt>
      <trkpt lat="56.3440859" lon="13.6341511">
        <ele>113.092</ele>
        <time>2014-05-27T17:40:45Z</time>
      </trkpt>
      <trkpt lat="56.3439984" lon="13.6341433">
        <ele>113.092</ele>
        <time>2014-05-27T17:40:48Z</time>
      </trkpt>
      <trkpt lat="56.3437979" lon="13.634139">
        <ele>113.092</ele>
        <time>2014-05-27T17:40:54Z</time>
      </trkpt>
      <trkpt lat="56.3434729" lon="13.6341542">
        <ele>112.612</ele>
        <time>2014-05-27T17:41:05Z</time>
      </trkpt>
      <trkpt lat="56.3433343" lon="13.6341982">
        <ele>113.573</ele>
        <time>2014-05-27T17:41:09Z</time>
      </trkpt>
      <trkpt lat="56.343281" lon="13.6342065">
        <ele>113.573</ele>
        <time>2014-05-27T17:41:11Z</time>
      </trkpt>
      <trkpt lat="56.3431488" lon="13.6339971">
        <ele>113.092</ele>
        <time>2014-05-27T17:41:17Z</time>
      </trkpt>
      <trkpt lat="56.3430442" lon="13.6338233">
        <ele>113.092</ele>
        <time>2014-05-27T17:41:22Z</time>
      </trkpt>
      <trkpt lat="56.3429433" lon="13.633747">
        <ele>113.092</ele>
        <time>2014-05-27T17:41:26Z</time>
      </trkpt>
      <trkpt lat="56.3428163" lon="13.6336502">
        <ele>113.092</ele>
        <time>2014-05-27T17:41:31Z</time>
      </trkpt>
      <trkpt lat="56.3427064" lon="13.6335101">
        <ele>113.573</ele>
        <time>2014-05-27T17:41:36Z</time>
      </trkpt>
      <trkpt lat="56.3426913" lon="13.6334725">
        <ele>113.573</ele>
        <time>2014-05-27T17:41:37Z</time>
      </trkpt>
      <trkpt lat="56.3425723" lon="13.6333226">
        <ele>113.092</ele>
        <time>2014-05-27T17:41:42Z</time>
      </trkpt>
      <trkpt lat="56.3425237" lon="13.6332123">
        <ele>113.092</ele>
        <time>2014-05-27T17:41:45Z</time>
      </trkpt>
      <trkpt lat="56.3424187" lon="13.6330047">
        <ele>112.612</ele>
        <time>2014-05-27T17:41:51Z</time>
      </trkpt>
      <trkpt lat="56.3423651" lon="13.6328944">
        <ele>112.612</ele>
        <time>2014-05-27T17:41:54Z</time>
      </trkpt>
      <trkpt lat="56.3422287" lon="13.632723">
        <ele>111.65</ele>
        <time>2014-05-27T17:42:00Z</time>
      </trkpt>
      <trkpt lat="56.3422092" lon="13.6326948">
        <ele>111.65</ele>
        <time>2014-05-27T17:42:01Z</time>
      </trkpt>
      <trkpt lat="56.3421145" lon="13.6325799">
        <ele>111.65</ele>
        <time>2014-05-27T17:42:06Z</time>
      </trkpt>
      <trkpt lat="56.3419983" lon="13.6324889">
        <ele>112.131</ele>
        <time>2014-05-27T17:42:11Z</time>
      </trkpt>
      <trkpt lat="56.3419081" lon="13.6324086">
        <ele>111.65</ele>
        <time>2014-05-27T17:42:15Z</time>
      </trkpt>
      <trkpt lat="56.3417743" lon="13.6322291">
        <ele>110.689</ele>
        <time>2014-05-27T17:42:21Z</time>
      </trkpt>
      <trkpt lat="56.3417564" lon="13.6321919">
        <ele>110.208</ele>
        <time>2014-05-27T17:42:22Z</time>
      </trkpt>
      <trkpt lat="56.3416431" lon="13.6321028">
        <ele>110.208</ele>
        <time>2014-05-27T17:42:26Z</time>
      </trkpt>
      <trkpt lat="56.3414967" lon="13.6320429">
        <ele>110.208</ele>
        <time>2014-05-27T17:42:31Z</time>
      </trkpt>
      <trkpt lat="56.341353" lon="13.632027">
        <ele>109.728</ele>
        <time>2014-05-27T17:42:35Z</time>
      </trkpt>
      <trkpt lat="56.3412613" lon="13.631963">
        <ele>109.728</ele>
        <time>2014-05-27T17:42:39Z</time>
      </trkpt>
      <trkpt lat="56.34113" lon="13.6318383">
        <ele>109.247</ele>
        <time>2014-05-27T17:42:44Z</time>
      </trkpt>
      <trkpt lat="56.3410715" lon="13.6317028">
        <ele>108.286</ele>
        <time>2014-05-27T17:42:48Z</time>
      </trkpt>
      <trkpt lat="56.3409857" lon="13.6315671">
        <ele>107.324</ele>
        <time>2014-05-27T17:42:52Z</time>
      </trkpt>
      <trkpt lat="56.3409486" lon="13.6314552">
        <ele>106.844</ele>
        <time>2014-05-27T17:42:55Z</time>
      </trkpt>
      <trkpt lat="56.3409111" lon="13.6313308">
        <ele>106.844</ele>
        <time>2014-05-27T17:42:58Z</time>
      </trkpt>
      <trkpt lat="56.3408355" lon="13.6310389">
        <ele>105.882</ele>
        <time>2014-05-27T17:43:04Z</time>
      </trkpt>
      <trkpt lat="56.3407726" lon="13.6308322">
        <ele>105.402</ele>
        <time>2014-05-27T17:43:09Z</time>
      </trkpt>
      <trkpt lat="56.340721" lon="13.6307135">
        <ele>105.402</ele>
        <time>2014-05-27T17:43:12Z</time>
      </trkpt>
      <trkpt lat="56.3405862" lon="13.6304704">
        <ele>105.882</ele>
        <time>2014-05-27T17:43:19Z</time>
      </trkpt>
      <trkpt lat="56.3405458" lon="13.6304095">
        <ele>105.882</ele>
        <time>2014-05-27T17:43:21Z</time>
      </trkpt>
      <trkpt lat="56.3404484" lon="13.6302795">
        <ele>105.882</ele>
        <time>2014-05-27T17:43:25Z</time>
      </trkpt>
      <trkpt lat="56.3403824" lon="13.6301064">
        <ele>105.882</ele>
        <time>2014-05-27T17:43:30Z</time>
      </trkpt>
      <trkpt lat="56.3402976" lon="13.6299371">
        <ele>106.363</ele>
        <time>2014-05-27T17:43:35Z</time>
      </trkpt>
      <trkpt lat="56.3402479" lon="13.629837">
        <ele>106.363</ele>
        <time>2014-05-27T17:43:38Z</time>
      </trkpt>
      <trkpt lat="56.3401593" lon="13.6296195">
        <ele>105.882</ele>
        <time>2014-05-27T17:43:44Z</time>
      </trkpt>
      <trkpt lat="56.3401241" lon="13.6295429">
        <ele>105.882</ele>
        <time>2014-05-27T17:43:46Z</time>
      </trkpt>
      <trkpt lat="56.3400872" lon="13.6293986">
        <ele>106.844</ele>
        <time>2014-05-27T17:43:50Z</time>
      </trkpt>
      <trkpt lat="56.3400375" lon="13.6292529">
        <ele>107.324</ele>
        <time>2014-05-27T17:43:54Z</time>
      </trkpt>
      <trkpt lat="56.3399341" lon="13.6290601">
        <ele>107.324</ele>
        <time>2014-05-27T17:44:00Z</time>
      </trkpt>
      <trkpt lat="56.3398888" lon="13.6289887">
        <ele>106.844</ele>
        <time>2014-05-27T17:44:03Z</time>
      </trkpt>
      <trkpt lat="56.3397876" lon="13.6288871">
        <ele>107.805</ele>
        <time>2014-05-27T17:44:08Z</time>
      </trkpt>
      <trkpt lat="56.3397119" lon="13.6288442">
        <ele>107.805</ele>
        <time>2014-05-27T17:44:11Z</time>
      </trkpt>
      <trkpt lat="56.3395637" lon="13.6287242">
        <ele>108.286</ele>
        <time>2014-05-27T17:44:17Z</time>
      </trkpt>
      <trkpt lat="56.3394614" lon="13.6285901">
        <ele>109.247</ele>
        <time>2014-05-27T17:44:22Z</time>
      </trkpt>
      <trkpt lat="56.3393804" lon="13.6284622">
        <ele>108.766</ele>
        <time>2014-05-27T17:44:26Z</time>
      </trkpt>
      <trkpt lat="56.3392881" lon="13.6283227">
        <ele>110.208</ele>
        <time>2014-05-27T17:44:31Z</time>
      </trkpt>
      <trkpt lat="56.3392095" lon="13.6282043">
        <ele>110.689</ele>
        <time>2014-05-27T17:44:35Z</time>
      </trkpt>
      <trkpt lat="56.339069" lon="13.6280966">
        <ele>111.65</ele>
        <time>2014-05-27T17:44:41Z</time>
      </trkpt>
      <trkpt lat="56.338962" lon="13.6280598">
        <ele>112.612</ele>
        <time>2014-05-27T17:44:44Z</time>
      </trkpt>
      <trkpt lat="56.3388903" lon="13.6279762">
        <ele>113.092</ele>
        <time>2014-05-27T17:44:47Z</time>
      </trkpt>
      <trkpt lat="56.3388284" lon="13.6278587">
        <ele>113.092</ele>
        <time>2014-05-27T17:44:51Z</time>
      </trkpt>
      <trkpt lat="56.3387846" lon="13.6277723">
        <ele>113.092</ele>
        <time>2014-05-27T17:44:53Z</time>
      </trkpt>
      <trkpt lat="56.3387191" lon="13.6275521">
        <ele>113.573</ele>
        <time>2014-05-27T17:44:59Z</time>
      </trkpt>
      <trkpt lat="56.3386727" lon="13.6274169">
        <ele>113.573</ele>
        <time>2014-05-27T17:45:02Z</time>
      </trkpt>
      <trkpt lat="56.3386623" lon="13.6273817">
        <ele>113.573</ele>
        <time>2014-05-27T17:45:03Z</time>
      </trkpt>
      <trkpt lat="56.3385986" lon="13.6272247">
        <ele>113.092</ele>
        <time>2014-05-27T17:45:07Z</time>
      </trkpt>
      <trkpt lat="56.3385471" lon="13.627086">
        <ele>113.573</ele>
        <time>2014-05-27T17:45:11Z</time>
      </trkpt>
      <trkpt lat="56.3385291" lon="13.6270164">
        <ele>113.573</ele>
        <time>2014-05-27T17:45:13Z</time>
      </trkpt>
      <trkpt lat="56.3384441" lon="13.6268044">
        <ele>114.054</ele>
        <time>2014-05-27T17:45:18Z</time>
      </trkpt>
      <trkpt lat="56.3384078" lon="13.6266726">
        <ele>115.015</ele>
        <time>2014-05-27T17:45:21Z</time>
      </trkpt>
      <trkpt lat="56.3383267" lon="13.6264348">
        <ele>116.457</ele>
        <time>2014-05-27T17:45:27Z</time>
      </trkpt>
      <trkpt lat="56.3382664" lon="13.6262812">
        <ele>117.418</ele>
        <time>2014-05-27T17:45:31Z</time>
      </trkpt>
      <trkpt lat="56.3381759" lon="13.6261184">
        <ele>117.418</ele>
        <time>2014-05-27T17:45:35Z</time>
      </trkpt>
      <trkpt lat="56.3381479" lon="13.6259669">
        <ele>117.418</ele>
        <time>2014-05-27T17:45:38Z</time>
      </trkpt>
      <trkpt lat="56.3381246" lon="13.6258593">
        <ele>117.418</ele>
        <time>2014-05-27T17:45:40Z</time>
      </trkpt>
      <trkpt lat="56.3380904" lon="13.625676">
        <ele>116.938</ele>
        <time>2014-05-27T17:45:44Z</time>
      </trkpt>
      <trkpt lat="56.3380676" lon="13.625469">
        <ele>117.418</ele>
        <time>2014-05-27T17:45:49Z</time>
      </trkpt>
      <trkpt lat="56.3380432" lon="13.6252678">
        <ele>117.418</ele>
        <time>2014-05-27T17:45:54Z</time>
      </trkpt>
      <trkpt lat="56.3380261" lon="13.6251225">
        <ele>117.899</ele>
        <time>2014-05-27T17:45:57Z</time>
      </trkpt>
      <trkpt lat="56.3379856" lon="13.6249538">
        <ele>118.379</ele>
        <time>2014-05-27T17:46:01Z</time>
      </trkpt>
      <trkpt lat="56.3379121" lon="13.6247947">
        <ele>118.379</ele>
        <time>2014-05-27T17:46:06Z</time>
      </trkpt>
      <trkpt lat="56.3378847" lon="13.6247294">
        <ele>118.86</ele>
        <time>2014-05-27T17:46:08Z</time>
      </trkpt>
      <trkpt lat="56.3377834" lon="13.6244871">
        <ele>118.86</ele>
        <time>2014-05-27T17:46:15Z</time>
      </trkpt>
      <trkpt lat="56.3377088" lon="13.6242774">
        <ele>118.86</ele>
        <time>2014-05-27T17:46:20Z</time>
      </trkpt>
      <trkpt lat="56.337676" lon="13.6241913">
        <ele>118.86</ele>
        <time>2014-05-27T17:46:22Z</time>
      </trkpt>
      <trkpt lat="56.3376256" lon="13.6240395">
        <ele>119.821</ele>
        <time>2014-05-27T17:46:26Z</time>
      </trkpt>
      <trkpt lat="56.337548" lon="13.6238565">
        <ele>120.302</ele>
        <time>2014-05-27T17:46:31Z</time>
      </trkpt>
      <trkpt lat="56.3374678" lon="13.6236637">
        <ele>121.264</ele>
        <time>2014-05-27T17:46:36Z</time>
      </trkpt>
      <trkpt lat="56.3374233" lon="13.6235437">
        <ele>121.264</ele>
        <time>2014-05-27T17:46:39Z</time>
      </trkpt>
      <trkpt lat="56.3373149" lon="13.6233055">
        <ele>120.783</ele>
        <time>2014-05-27T17:46:45Z</time>
      </trkpt>
      <trkpt lat="56.3372539" lon="13.6231278">
        <ele>121.264</ele>
        <time>2014-05-27T17:46:49Z</time>
      </trkpt>
      <trkpt lat="56.3371492" lon="13.6229439">
        <ele>121.264</ele>
        <time>2014-05-27T17:46:53Z</time>
      </trkpt>
      <trkpt lat="56.3370855" lon="13.6226982">
        <ele>120.783</ele>
        <time>2014-05-27T17:46:58Z</time>
      </trkpt>
      <trkpt lat="56.3370662" lon="13.6225048">
        <ele>120.783</ele>
        <time>2014-05-27T17:47:02Z</time>
      </trkpt>
      <trkpt lat="56.3370263" lon="13.6222503">
        <ele>120.783</ele>
        <time>2014-05-27T17:47:07Z</time>
      </trkpt>
      <trkpt lat="56.3369384" lon="13.6220804">
        <ele>121.264</ele>
        <time>2014-05-27T17:47:11Z</time>
      </trkpt>
      <trkpt lat="56.3368237" lon="13.6218756">
        <ele>120.783</ele>
        <time>2014-05-27T17:47:17Z</time>
      </trkpt>
      <trkpt lat="56.3366965" lon="13.6217036">
        <ele>120.302</ele>
        <time>2014-05-27T17:47:23Z</time>
      </trkpt>
      <trkpt lat="56.3366101" lon="13.6215634">
        <ele>120.302</ele>
        <time>2014-05-27T17:47:28Z</time>
      </trkpt>
      <trkpt lat="56.3365198" lon="13.6214105">
        <ele>120.302</ele>
        <time>2014-05-27T17:47:33Z</time>
      </trkpt>
      <trkpt lat="56.3364012" lon="13.6212413">
        <ele>119.821</ele>
        <time>2014-05-27T17:47:39Z</time>
      </trkpt>
      <trkpt lat="56.3363311" lon="13.6211375">
        <ele>119.821</ele>
        <time>2014-05-27T17:47:43Z</time>
      </trkpt>
      <trkpt lat="56.336226" lon="13.6210022">
        <ele>119.821</ele>
        <time>2014-05-27T17:47:48Z</time>
      </trkpt>
      <trkpt lat="56.3361085" lon="13.6208468">
        <ele>120.302</ele>
        <time>2014-05-27T17:47:53Z</time>
      </trkpt>
      <trkpt lat="56.3360227" lon="13.6207236">
        <ele>120.302</ele>
        <time>2014-05-27T17:47:57Z</time>
      </trkpt>
      <trkpt lat="56.335964" lon="13.6206698">
        <ele>120.302</ele>
        <time>2014-05-27T17:47:59Z</time>
      </trkpt>
      <trkpt lat="56.3358785" lon="13.62046">
        <ele>119.821</ele>
        <time>2014-05-27T17:48:05Z</time>
      </trkpt>
      <trkpt lat="56.3358299" lon="13.620399">
        <ele>119.341</ele>
        <time>2014-05-27T17:48:07Z</time>
      </trkpt>
      <trkpt lat="56.3357745" lon="13.6202601">
        <ele>118.379</ele>
        <time>2014-05-27T17:48:11Z</time>
      </trkpt>
      <trkpt lat="56.3356785" lon="13.6201577">
        <ele>118.379</ele>
        <time>2014-05-27T17:48:16Z</time>
      </trkpt>
      <trkpt lat="56.335654" lon="13.6201196">
        <ele>118.86</ele>
        <time>2014-05-27T17:48:18Z</time>
      </trkpt>
      <trkpt lat="56.3355767" lon="13.6200482">
        <ele>119.341</ele>
        <time>2014-05-27T17:48:22Z</time>
      </trkpt>
      <trkpt lat="56.3354517" lon="13.6199973">
        <ele>119.341</ele>
        <time>2014-05-27T17:48:26Z</time>
      </trkpt>
      <trkpt lat="56.3354278" lon="13.6199839">
        <ele>118.86</ele>
        <time>2014-05-27T17:48:27Z</time>
      </trkpt>
      <trkpt lat="56.3353729" lon="13.6199592">
        <ele>118.379</ele>
        <time>2014-05-27T17:48:29Z</time>
      </trkpt>
      <trkpt lat="56.335271" lon="13.6198685">
        <ele>117.418</ele>
        <time>2014-05-27T17:48:34Z</time>
      </trkpt>
      <trkpt lat="56.3352139" lon="13.6197513">
        <ele>117.418</ele>
        <time>2014-05-27T17:48:38Z</time>
      </trkpt>
      <trkpt lat="56.3351645" lon="13.6196893">
        <ele>117.418</ele>
        <time>2014-05-27T17:48:40Z</time>
      </trkpt>
      <trkpt lat="56.3350397" lon="13.6196001">
        <ele>117.418</ele>
        <time>2014-05-27T17:48:45Z</time>
      </trkpt>
      <trkpt lat="56.3349172" lon="13.6195267">
        <ele>117.418</ele>
        <time>2014-05-27T17:48:50Z</time>
      </trkpt>
      <trkpt lat="56.3347866" lon="13.6194493">
        <ele>116.938</ele>
        <time>2014-05-27T17:48:55Z</time>
      </trkpt>
      <trkpt lat="56.3347201" lon="13.6194085">
        <ele>116.457</ele>
        <time>2014-05-27T17:48:57Z</time>
      </trkpt>
      <trkpt lat="56.3346289" lon="13.6193251">
        <ele>116.457</ele>
        <time>2014-05-27T17:49:01Z</time>
      </trkpt>
      <trkpt lat="56.3345037" lon="13.6192158">
        <ele>116.938</ele>
        <time>2014-05-27T17:49:05Z</time>
      </trkpt>
      <trkpt lat="56.3344134" lon="13.6191133">
        <ele>117.418</ele>
        <time>2014-05-27T17:49:09Z</time>
      </trkpt>
      <trkpt lat="56.334216" lon="13.6189818">
        <ele>117.899</ele>
        <time>2014-05-27T17:49:15Z</time>
      </trkpt>
      <trkpt lat="56.3341226" lon="13.6188802">
        <ele>117.899</ele>
        <time>2014-05-27T17:49:18Z</time>
      </trkpt>
      <trkpt lat="56.3340928" lon="13.6188516">
        <ele>117.418</ele>
        <time>2014-05-27T17:49:19Z</time>
      </trkpt>
      <trkpt lat="56.3340114" lon="13.6187621">
        <ele>116.938</ele>
        <time>2014-05-27T17:49:22Z</time>
      </trkpt>
      <trkpt lat="56.3339464" lon="13.618672">
        <ele>116.938</ele>
        <time>2014-05-27T17:49:25Z</time>
      </trkpt>
      <trkpt lat="56.3338449" lon="13.6185948">
        <ele>116.457</ele>
        <time>2014-05-27T17:49:29Z</time>
      </trkpt>
      <trkpt lat="56.3338283" lon="13.6185729">
        <ele>116.457</ele>
        <time>2014-05-27T17:49:30Z</time>
      </trkpt>
      <trkpt lat="56.3336646" lon="13.6184878">
        <ele>116.457</ele>
        <time>2014-05-27T17:49:36Z</time>
      </trkpt>
      <trkpt lat="56.3334484" lon="13.618534">
        <ele>115.976</ele>
        <time>2014-05-27T17:49:43Z</time>
      </trkpt>
      <trkpt lat="56.33332" lon="13.6186029">
        <ele>115.976</ele>
        <time>2014-05-27T17:49:48Z</time>
      </trkpt>
      <trkpt lat="56.333201" lon="13.6186829">
        <ele>115.496</ele>
        <time>2014-05-27T17:49:53Z</time>
      </trkpt>
      <trkpt lat="56.3331672" lon="13.6186999">
        <ele>115.976</ele>
        <time>2014-05-27T17:49:55Z</time>
      </trkpt>
      <trkpt lat="56.3329922" lon="13.6187154">
        <ele>116.457</ele>
        <time>2014-05-27T17:50:01Z</time>
      </trkpt>
      <trkpt lat="56.3329357" lon="13.6187039">
        <ele>115.976</ele>
        <time>2014-05-27T17:50:03Z</time>
      </trkpt>
      <trkpt lat="56.3328273" lon="13.6186938">
        <ele>115.976</ele>
        <time>2014-05-27T17:50:07Z</time>
      </trkpt>
      <trkpt lat="56.3326898" lon="13.618629">
        <ele>115.496</ele>
        <time>2014-05-27T17:50:13Z</time>
      </trkpt>
      <trkpt lat="56.3326538" lon="13.6186043">
        <ele>115.496</ele>
        <time>2014-05-27T17:50:15Z</time>
      </trkpt>
      <trkpt lat="56.332545" lon="13.6185481">
        <ele>115.015</ele>
        <time>2014-05-27T17:50:20Z</time>
      </trkpt>
      <trkpt lat="56.332439" lon="13.6185071">
        <ele>114.534</ele>
        <time>2014-05-27T17:50:24Z</time>
      </trkpt>
      <trkpt lat="56.3323368" lon="13.6184523">
        <ele>114.534</ele>
        <time>2014-05-27T17:50:28Z</time>
      </trkpt>
      <trkpt lat="56.332222" lon="13.6184283">
        <ele>114.054</ele>
        <time>2014-05-27T17:50:32Z</time>
      </trkpt>
      <trkpt lat="56.3321975" lon="13.6184196">
        <ele>114.054</ele>
        <time>2014-05-27T17:50:33Z</time>
      </trkpt>
      <trkpt lat="56.3321355" lon="13.6183973">
        <ele>114.054</ele>
        <time>2014-05-27T17:50:35Z</time>
      </trkpt>
      <trkpt lat="56.3320223" lon="13.6183358">
        <ele>114.054</ele>
        <time>2014-05-27T17:50:39Z</time>
      </trkpt>
      <trkpt lat="56.3319939" lon="13.6183255">
        <ele>114.054</ele>
        <time>2014-05-27T17:50:40Z</time>
      </trkpt>
      <trkpt lat="56.3318681" lon="13.6183139">
        <ele>114.534</ele>
        <time>2014-05-27T17:50:46Z</time>
      </trkpt>
      <trkpt lat="56.331821" lon="13.6183564">
        <ele>114.054</ele>
        <time>2014-05-27T17:50:48Z</time>
      </trkpt>
      <trkpt lat="56.3316888" lon="13.6185947">
        <ele>114.054</ele>
        <time>2014-05-27T17:50:54Z</time>
      </trkpt>
      <trkpt lat="56.3315687" lon="13.6188111">
        <ele>114.054</ele>
        <time>2014-05-27T17:50:59Z</time>
      </trkpt>
      <trkpt lat="56.3314423" lon="13.6190164">
        <ele>113.092</ele>
        <time>2014-05-27T17:51:04Z</time>
      </trkpt>
      <trkpt lat="56.3313158" lon="13.6191845">
        <ele>112.612</ele>
        <time>2014-05-27T17:51:09Z</time>
      </trkpt>
      <trkpt lat="56.3311456" lon="13.619337">
        <ele>112.612</ele>
        <time>2014-05-27T17:51:15Z</time>
      </trkpt>
      <trkpt lat="56.3310543" lon="13.6195426">
        <ele>112.612</ele>
        <time>2014-05-27T17:51:20Z</time>
      </trkpt>
      <trkpt lat="56.3309651" lon="13.6198265">
        <ele>113.092</ele>
        <time>2014-05-27T17:51:26Z</time>
      </trkpt>
      <trkpt lat="56.3308932" lon="13.6201524">
        <ele>113.573</ele>
        <time>2014-05-27T17:51:33Z</time>
      </trkpt>
      <trkpt lat="56.3308728" lon="13.6204228">
        <ele>114.054</ele>
        <time>2014-05-27T17:51:39Z</time>
      </trkpt>
      <trkpt lat="56.3308434" lon="13.620709">
        <ele>114.054</ele>
        <time>2014-05-27T17:51:45Z</time>
      </trkpt>
      <trkpt lat="56.3308114" lon="13.6210231">
        <ele>113.573</ele>
        <time>2014-05-27T17:51:51Z</time>
      </trkpt>
      <trkpt lat="56.330771" lon="13.6213376">
        <ele>112.612</ele>
        <time>2014-05-27T17:51:57Z</time>
      </trkpt>
      <trkpt lat="56.3307441" lon="13.6216148">
        <ele>112.612</ele>
        <time>2014-05-27T17:52:02Z</time>
      </trkpt>
      <trkpt lat="56.3307161" lon="13.6219495">
        <ele>112.612</ele>
        <time>2014-05-27T17:52:08Z</time>
      </trkpt>
      <trkpt lat="56.3307005" lon="13.6222881">
        <ele>111.65</ele>
        <time>2014-05-27T17:52:14Z</time>
      </trkpt>
      <trkpt lat="56.3306762" lon="13.6226373">
        <ele>111.17</ele>
        <time>2014-05-27T17:52:20Z</time>
      </trkpt>
      <trkpt lat="56.3306978" lon="13.6229294">
        <ele>111.17</ele>
        <time>2014-05-27T17:52:25Z</time>
      </trkpt>
      <trkpt lat="56.3307531" lon="13.6233395">
        <ele>110.689</ele>
        <time>2014-05-27T17:52:32Z</time>
      </trkpt>
      <trkpt lat="56.3307632" lon="13.6236762">
        <ele>111.17</ele>
        <time>2014-05-27T17:52:38Z</time>
      </trkpt>
      <trkpt lat="56.3306946" lon="13.6239435">
        <ele>109.728</ele>
        <time>2014-05-27T17:52:44Z</time>
      </trkpt>
      <trkpt lat="56.330588" lon="13.624153">
        <ele>109.247</ele>
        <time>2014-05-27T17:52:50Z</time>
      </trkpt>
      <trkpt lat="56.330455" lon="13.624274">
        <ele>109.247</ele>
        <time>2014-05-27T17:52:56Z</time>
      </trkpt>
      <trkpt lat="56.330267" lon="13.6243098">
        <ele>109.247</ele>
        <time>2014-05-27T17:53:03Z</time>
      </trkpt>
      <trkpt lat="56.3301238" lon="13.6243151">
        <ele>108.766</ele>
        <time>2014-05-27T17:53:08Z</time>
      </trkpt>
      <trkpt lat="56.3299674" lon="13.6244397">
        <ele>108.286</ele>
        <time>2014-05-27T17:53:14Z</time>
      </trkpt>
      <trkpt lat="56.3298375" lon="13.6246145">
        <ele>107.324</ele>
        <time>2014-05-27T17:53:20Z</time>
      </trkpt>
      <trkpt lat="56.3297406" lon="13.6248014">
        <ele>108.286</ele>
        <time>2014-05-27T17:53:25Z</time>
      </trkpt>
      <trkpt lat="56.3296332" lon="13.6250357">
        <ele>108.766</ele>
        <time>2014-05-27T17:53:31Z</time>
      </trkpt>
      <trkpt lat="56.3295671" lon="13.6251827">
        <ele>107.805</ele>
        <time>2014-05-27T17:53:35Z</time>
      </trkpt>
      <trkpt lat="56.329505" lon="13.6253206">
        <ele>108.286</ele>
        <time>2014-05-27T17:53:39Z</time>
      </trkpt>
      <trkpt lat="56.3293998" lon="13.6255558">
        <ele>108.286</ele>
        <time>2014-05-27T17:53:45Z</time>
      </trkpt>
      <trkpt lat="56.3293086" lon="13.625829">
        <ele>108.766</ele>
        <time>2014-05-27T17:53:51Z</time>
      </trkpt>
      <trkpt lat="56.3292699" lon="13.6261075">
        <ele>109.247</ele>
        <time>2014-05-27T17:53:56Z</time>
      </trkpt>
      <trkpt lat="56.3292123" lon="13.6264442">
        <ele>109.728</ele>
        <time>2014-05-27T17:54:02Z</time>
      </trkpt>
      <trkpt lat="56.3291385" lon="13.62669">
        <ele>109.728</ele>
        <time>2014-05-27T17:54:07Z</time>
      </trkpt>
      <trkpt lat="56.3290398" lon="13.6269228">
        <ele>109.728</ele>
        <time>2014-05-27T17:54:13Z</time>
      </trkpt>
      <trkpt lat="56.3289391" lon="13.6271093">
        <ele>110.208</ele>
        <time>2014-05-27T17:54:19Z</time>
      </trkpt>
      <trkpt lat="56.3288728" lon="13.6272111">
        <ele>110.689</ele>
        <time>2014-05-27T17:54:23Z</time>
      </trkpt>
      <trkpt lat="56.3287729" lon="13.6273072">
        <ele>111.17</ele>
        <time>2014-05-27T17:54:28Z</time>
      </trkpt>
      <trkpt lat="56.3287528" lon="13.6273281">
        <ele>111.17</ele>
        <time>2014-05-27T17:54:29Z</time>
      </trkpt>
      <trkpt lat="56.3286326" lon="13.6274383">
        <ele>111.65</ele>
        <time>2014-05-27T17:54:35Z</time>
      </trkpt>
      <trkpt lat="56.3285255" lon="13.6275395">
        <ele>111.65</ele>
        <time>2014-05-27T17:54:40Z</time>
      </trkpt>
      <trkpt lat="56.3284148" lon="13.62765">
        <ele>112.131</ele>
        <time>2014-05-27T17:54:45Z</time>
      </trkpt>
      <trkpt lat="56.3282933" lon="13.6277386">
        <ele>112.612</ele>
        <time>2014-05-27T17:54:51Z</time>
      </trkpt>
      <trkpt lat="56.3282266" lon="13.6277904">
        <ele>113.092</ele>
        <time>2014-05-27T17:54:54Z</time>
      </trkpt>
      <trkpt lat="56.3281108" lon="13.6278391">
        <ele>113.573</ele>
        <time>2014-05-27T17:55:00Z</time>
      </trkpt>
      <trkpt lat="56.328071" lon="13.6278433">
        <ele>114.054</ele>
        <time>2014-05-27T17:55:02Z</time>
      </trkpt>
      <trkpt lat="56.3279654" lon="13.6278521">
        <ele>114.054</ele>
        <time>2014-05-27T17:55:07Z</time>
      </trkpt>
      <trkpt lat="56.327908" lon="13.6278555">
        <ele>114.534</ele>
        <time>2014-05-27T17:55:10Z</time>
      </trkpt>
      <trkpt lat="56.327797" lon="13.6278511">
        <ele>115.976</ele>
        <time>2014-05-27T17:55:15Z</time>
      </trkpt>
      <trkpt lat="56.3276629" lon="13.6278018">
        <ele>117.418</ele>
        <time>2014-05-27T17:55:21Z</time>
      </trkpt>
      <trkpt lat="56.327541" lon="13.6276994">
        <ele>117.418</ele>
        <time>2014-05-27T17:55:26Z</time>
      </trkpt>
      <trkpt lat="56.3274226" lon="13.6276336">
        <ele>117.418</ele>
        <time>2014-05-27T17:55:30Z</time>
      </trkpt>
      <trkpt lat="56.3272569" lon="13.6275376">
        <ele>117.899</ele>
        <time>2014-05-27T17:55:35Z</time>
      </trkpt>
      <trkpt lat="56.3272247" lon="13.6275214">
        <ele>117.899</ele>
        <time>2014-05-27T17:55:36Z</time>
      </trkpt>
      <trkpt lat="56.3270987" lon="13.6274526">
        <ele>118.379</ele>
        <time>2014-05-27T17:55:41Z</time>
      </trkpt>
      <trkpt lat="56.3270719" lon="13.6274419">
        <ele>118.379</ele>
        <time>2014-05-27T17:55:42Z</time>
      </trkpt>
      <trkpt lat="56.3269567" lon="13.6273946">
        <ele>118.379</ele>
        <time>2014-05-27T17:55:46Z</time>
      </trkpt>
      <trkpt lat="56.3268206" lon="13.6273065">
        <ele>118.379</ele>
        <time>2014-05-27T17:55:50Z</time>
      </trkpt>
      <trkpt lat="56.3266854" lon="13.6272527">
        <ele>118.379</ele>
        <time>2014-05-27T17:55:54Z</time>
      </trkpt>
      <trkpt lat="56.3265756" lon="13.6271992">
        <ele>117.899</ele>
        <time>2014-05-27T17:55:57Z</time>
      </trkpt>
      <trkpt lat="56.3264861" lon="13.6271563">
        <ele>117.899</ele>
        <time>2014-05-27T17:56:00Z</time>
      </trkpt>
      <trkpt lat="56.3264207" lon="13.6271313">
        <ele>117.899</ele>
        <time>2014-05-27T17:56:02Z</time>
      </trkpt>
      <trkpt lat="56.3263114" lon="13.6271921">
        <ele>117.418</ele>
        <time>2014-05-27T17:56:06Z</time>
      </trkpt>
      <trkpt lat="56.3262584" lon="13.6274366">
        <ele>115.976</ele>
        <time>2014-05-27T17:56:11Z</time>
      </trkpt>
      <trkpt lat="56.3262705" lon="13.627824">
        <ele>114.534</ele>
        <time>2014-05-27T17:56:18Z</time>
      </trkpt>
      <trkpt lat="56.3263337" lon="13.6280567">
        <ele>113.092</ele>
        <time>2014-05-27T17:56:23Z</time>
      </trkpt>
      <trkpt lat="56.3264414" lon="13.6283285">
        <ele>113.573</ele>
        <time>2014-05-27T17:56:30Z</time>
      </trkpt>
      <trkpt lat="56.32656" lon="13.628589">
        <ele>114.054</ele>
        <time>2014-05-27T17:56:37Z</time>
      </trkpt>
      <trkpt lat="56.3266356" lon="13.6287833">
        <ele>114.054</ele>
        <time>2014-05-27T17:56:42Z</time>
      </trkpt>
      <trkpt lat="56.3267227" lon="13.6290274">
        <ele>114.534</ele>
        <time>2014-05-27T17:56:48Z</time>
      </trkpt>
      <trkpt lat="56.3267723" lon="13.6292994">
        <ele>114.054</ele>
        <time>2014-05-27T17:56:54Z</time>
      </trkpt>
      <trkpt lat="56.3267821" lon="13.6294351">
        <ele>114.054</ele>
        <time>2014-05-27T17:56:57Z</time>
      </trkpt>
      <trkpt lat="56.3267703" lon="13.6295791">
        <ele>114.054</ele>
        <time>2014-05-27T17:57:01Z</time>
      </trkpt>
      <trkpt lat="56.3267674" lon="13.6297548">
        <ele>113.573</ele>
        <time>2014-05-27T17:57:05Z</time>
      </trkpt>
      <trkpt lat="56.3267783" lon="13.6300281">
        <ele>113.573</ele>
        <time>2014-05-27T17:57:10Z</time>
      </trkpt>
      <trkpt lat="56.3268211" lon="13.6304204">
        <ele>113.092</ele>
        <time>2014-05-27T17:57:17Z</time>
      </trkpt>
      <trkpt lat="56.3268614" lon="13.6308897">
        <ele>112.131</ele>
        <time>2014-05-27T17:57:25Z</time>
      </trkpt>
      <trkpt lat="56.3268798" lon="13.631241">
        <ele>111.65</ele>
        <time>2014-05-27T17:57:31Z</time>
      </trkpt>
      <trkpt lat="56.326881" lon="13.6315013">
        <ele>111.65</ele>
        <time>2014-05-27T17:57:36Z</time>
      </trkpt>
      <trkpt lat="56.3268516" lon="13.6318497">
        <ele>111.17</ele>
        <time>2014-05-27T17:57:43Z</time>
      </trkpt>
      <trkpt lat="56.3268051" lon="13.6321328">
        <ele>110.689</ele>
        <time>2014-05-27T17:57:49Z</time>
      </trkpt>
      <trkpt lat="56.3267642" lon="13.6323746">
        <ele>109.728</ele>
        <time>2014-05-27T17:57:54Z</time>
      </trkpt>
      <trkpt lat="56.3267368" lon="13.6326197">
        <ele>109.247</ele>
        <time>2014-05-27T17:57:59Z</time>
      </trkpt>
      <trkpt lat="56.3267259" lon="13.6328554">
        <ele>109.247</ele>
        <time>2014-05-27T17:58:04Z</time>
      </trkpt>
      <trkpt lat="56.3267194" lon="13.6331205">
        <ele>109.247</ele>
        <time>2014-05-27T17:58:09Z</time>
      </trkpt>
      <trkpt lat="56.3267036" lon="13.6334418">
        <ele>110.689</ele>
        <time>2014-05-27T17:58:15Z</time>
      </trkpt>
      <trkpt lat="56.3266828" lon="13.6337279">
        <ele>110.689</ele>
        <time>2014-05-27T17:58:21Z</time>
      </trkpt>
      <trkpt lat="56.3266559" lon="13.6340082">
        <ele>110.208</ele>
        <time>2014-05-27T17:58:27Z</time>
      </trkpt>
      <trkpt lat="56.3266239" lon="13.6342323">
        <ele>109.247</ele>
        <time>2014-05-27T17:58:32Z</time>
      </trkpt>
      <trkpt lat="56.3265829" lon="13.6344568">
        <ele>108.766</ele>
        <time>2014-05-27T17:58:37Z</time>
      </trkpt>
      <trkpt lat="56.3265542" lon="13.6346152">
        <ele>108.286</ele>
        <time>2014-05-27T17:58:41Z</time>
      </trkpt>
      <trkpt lat="56.3265171" lon="13.6347566">
        <ele>107.805</ele>
        <time>2014-05-27T17:58:45Z</time>
      </trkpt>
      <trkpt lat="56.3264825" lon="13.6348627">
        <ele>108.286</ele>
        <time>2014-05-27T17:58:48Z</time>
      </trkpt>
      <trkpt lat="56.3264327" lon="13.6350264">
        <ele>108.766</ele>
        <time>2014-05-27T17:58:53Z</time>
      </trkpt>
      <trkpt lat="56.3264207" lon="13.635059">
        <ele>108.766</ele>
        <time>2014-05-27T17:58:54Z</time>
      </trkpt>
      <trkpt lat="56.3263415" lon="13.6353399">
        <ele>109.247</ele>
        <time>2014-05-27T17:59:01Z</time>
      </trkpt>
      <trkpt lat="56.3262662" lon="13.6356044">
        <ele>108.286</ele>
        <time>2014-05-27T17:59:06Z</time>
      </trkpt>
      <trkpt lat="56.3262441" lon="13.6356589">
        <ele>108.286</ele>
        <time>2014-05-27T17:59:07Z</time>
      </trkpt>
      <trkpt lat="56.3261706" lon="13.636015">
        <ele>107.324</ele>
        <time>2014-05-27T17:59:14Z</time>
      </trkpt>
      <trkpt lat="56.326169" lon="13.6360549">
        <ele>107.324</ele>
        <time>2014-05-27T17:59:15Z</time>
      </trkpt>
      <trkpt lat="56.3262301" lon="13.6363516">
        <ele>106.844</ele>
        <time>2014-05-27T17:59:22Z</time>
      </trkpt>
      <trkpt lat="56.3262843" lon="13.6364838">
        <ele>106.844</ele>
        <time>2014-05-27T17:59:25Z</time>
      </trkpt>
      <trkpt lat="56.3263928" lon="13.6367516">
        <ele>107.805</ele>
        <time>2014-05-27T17:59:31Z</time>
      </trkpt>
      <trkpt lat="56.3264868" lon="13.6369447">
        <ele>108.286</ele>
        <time>2014-05-27T17:59:36Z</time>
      </trkpt>
      <trkpt lat="56.3266156" lon="13.6371456">
        <ele>108.286</ele>
        <time>2014-05-27T17:59:42Z</time>
      </trkpt>
      <trkpt lat="56.3267408" lon="13.6373668">
        <ele>109.247</ele>
        <time>2014-05-27T17:59:48Z</time>
      </trkpt>
      <trkpt lat="56.3268232" lon="13.6375031">
        <ele>109.247</ele>
        <time>2014-05-27T17:59:52Z</time>
      </trkpt>
      <trkpt lat="56.326918" lon="13.6376958">
        <ele>110.689</ele>
        <time>2014-05-27T17:59:57Z</time>
      </trkpt>
      <trkpt lat="56.3269951" lon="13.6378793">
        <ele>110.689</ele>
        <time>2014-05-27T18:00:02Z</time>
      </trkpt>
      <trkpt lat="56.3270361" lon="13.6380269">
        <ele>111.17</ele>
        <time>2014-05-27T18:00:05Z</time>
      </trkpt>
      <trkpt lat="56.3271045" lon="13.6383299">
        <ele>111.65</ele>
        <time>2014-05-27T18:00:12Z</time>
      </trkpt>
      <trkpt lat="56.3271153" lon="13.6383605">
        <ele>111.65</ele>
        <time>2014-05-27T18:00:13Z</time>
      </trkpt>
      <trkpt lat="56.327145" lon="13.6386412">
        <ele>111.65</ele>
        <time>2014-05-27T18:00:19Z</time>
      </trkpt>
      <trkpt lat="56.3271504" lon="13.6389737">
        <ele>111.17</ele>
        <time>2014-05-27T18:00:25Z</time>
      </trkpt>
      <trkpt lat="56.3271365" lon="13.6392403">
        <ele>110.689</ele>
        <time>2014-05-27T18:00:30Z</time>
      </trkpt>
      <trkpt lat="56.3271089" lon="13.6395788">
        <ele>110.208</ele>
        <time>2014-05-27T18:00:36Z</time>
      </trkpt>
      <trkpt lat="56.3270439" lon="13.6400202">
        <ele>109.728</ele>
        <time>2014-05-27T18:00:44Z</time>
      </trkpt>
      <trkpt lat="56.3269843" lon="13.6403091">
        <ele>110.208</ele>
        <time>2014-05-27T18:00:50Z</time>
      </trkpt>
      <trkpt lat="56.3269574" lon="13.6405553">
        <ele>111.17</ele>
        <time>2014-05-27T18:00:55Z</time>
      </trkpt>
      <trkpt lat="56.3269569" lon="13.6406998">
        <ele>112.131</ele>
        <time>2014-05-27T18:00:58Z</time>
      </trkpt>
      <trkpt lat="56.3269616" lon="13.6410409">
        <ele>113.092</ele>
        <time>2014-05-27T18:01:05Z</time>
      </trkpt>
      <trkpt lat="56.3269797" lon="13.6412269">
        <ele>113.092</ele>
        <time>2014-05-27T18:01:09Z</time>
      </trkpt>
      <trkpt lat="56.3270029" lon="13.6415033">
        <ele>112.131</ele>
        <time>2014-05-27T18:01:15Z</time>
      </trkpt>
      <trkpt lat="56.3270051" lon="13.6417601">
        <ele>112.131</ele>
        <time>2014-05-27T18:01:21Z</time>
      </trkpt>
      <trkpt lat="56.3270059" lon="13.6418016">
        <ele>112.131</ele>
        <time>2014-05-27T18:01:22Z</time>
      </trkpt>
      <trkpt lat="56.327021" lon="13.6419301">
        <ele>111.65</ele>
        <time>2014-05-27T18:01:25Z</time>
      </trkpt>
      <trkpt lat="56.3270765" lon="13.6421258">
        <ele>110.689</ele>
        <time>2014-05-27T18:01:30Z</time>
      </trkpt>
      <trkpt lat="56.3271478" lon="13.6423397">
        <ele>110.208</ele>
        <time>2014-05-27T18:01:35Z</time>
      </trkpt>
      <trkpt lat="56.3272552" lon="13.6425851">
        <ele>109.728</ele>
        <time>2014-05-27T18:01:41Z</time>
      </trkpt>
      <trkpt lat="56.3273956" lon="13.6428237">
        <ele>109.728</ele>
        <time>2014-05-27T18:01:48Z</time>
      </trkpt>
      <trkpt lat="56.3274997" lon="13.6429831">
        <ele>109.728</ele>
        <time>2014-05-27T18:01:53Z</time>
      </trkpt>
      <trkpt lat="56.3276406" lon="13.6431857">
        <ele>109.247</ele>
        <time>2014-05-27T18:02:00Z</time>
      </trkpt>
      <trkpt lat="56.3277648" lon="13.6433766">
        <ele>109.728</ele>
        <time>2014-05-27T18:02:06Z</time>
      </trkpt>
      <trkpt lat="56.3279176" lon="13.6436201">
        <ele>109.728</ele>
        <time>2014-05-27T18:02:13Z</time>
      </trkpt>
      <trkpt lat="56.3280514" lon="13.6438632">
        <ele>110.208</ele>
        <time>2014-05-27T18:02:20Z</time>
      </trkpt>
      <trkpt lat="56.3281572" lon="13.6440729">
        <ele>110.208</ele>
        <time>2014-05-27T18:02:26Z</time>
      </trkpt>
      <trkpt lat="56.3282425" lon="13.6442772">
        <ele>110.689</ele>
        <time>2014-05-27T18:02:32Z</time>
      </trkpt>
      <trkpt lat="56.3283255" lon="13.6445105">
        <ele>110.689</ele>
        <time>2014-05-27T18:02:38Z</time>
      </trkpt>
      <trkpt lat="56.328411" lon="13.6447832">
        <ele>111.17</ele>
        <time>2014-05-27T18:02:44Z</time>
      </trkpt>
      <trkpt lat="56.328491" lon="13.6450705">
        <ele>110.689</ele>
        <time>2014-05-27T18:02:50Z</time>
      </trkpt>
      <trkpt lat="56.3285663" lon="13.6453401">
        <ele>110.208</ele>
        <time>2014-05-27T18:02:56Z</time>
      </trkpt>
      <trkpt lat="56.3286461" lon="13.6456039">
        <ele>111.17</ele>
        <time>2014-05-27T18:03:02Z</time>
      </trkpt>
      <trkpt lat="56.3287357" lon="13.6458932">
        <ele>112.612</ele>
        <time>2014-05-27T18:03:09Z</time>
      </trkpt>
      <trkpt lat="56.3288243" lon="13.6461782">
        <ele>113.573</ele>
        <time>2014-05-27T18:03:16Z</time>
      </trkpt>
      <trkpt lat="56.3288994" lon="13.6464314">
        <ele>113.573</ele>
        <time>2014-05-27T18:03:22Z</time>
      </trkpt>
      <trkpt lat="56.3289709" lon="13.6466772">
        <ele>114.054</ele>
        <time>2014-05-27T18:03:28Z</time>
      </trkpt>
      <trkpt lat="56.3290347" lon="13.6468817">
        <ele>114.054</ele>
        <time>2014-05-27T18:03:33Z</time>
      </trkpt>
      <trkpt lat="56.3291238" lon="13.6471821">
        <ele>114.534</ele>
        <time>2014-05-27T18:03:40Z</time>
      </trkpt>
      <trkpt lat="56.3292153" lon="13.6474767">
        <ele>115.015</ele>
        <time>2014-05-27T18:03:47Z</time>
      </trkpt>
      <trkpt lat="56.3292971" lon="13.6477375">
        <ele>115.496</ele>
        <time>2014-05-27T18:03:53Z</time>
      </trkpt>
      <trkpt lat="56.3293719" lon="13.6479185">
        <ele>115.976</ele>
        <time>2014-05-27T18:03:58Z</time>
      </trkpt>
      <trkpt lat="56.3294324" lon="13.6478797">
        <ele>115.976</ele>
        <time>2014-05-27T18:04:02Z</time>
      </trkpt>
      <trkpt lat="56.3294646" lon="13.6476131">
        <ele>116.938</ele>
        <time>2014-05-27T18:04:08Z</time>
      </trkpt>
      <trkpt lat="56.3295125" lon="13.6473459">
        <ele>116.938</ele>
        <time>2014-05-27T18:04:14Z</time>
      </trkpt>
      <trkpt lat="56.3295675" lon="13.6470503">
        <ele>117.418</ele>
        <time>2014-05-27T18:04:21Z</time>
      </trkpt>
      <trkpt lat="56.3295992" lon="13.6467765">
        <ele>117.418</ele>
        <time>2014-05-27T18:04:27Z</time>
      </trkpt>
      <trkpt lat="56.3296237" lon="13.6465186">
        <ele>117.418</ele>
        <time>2014-05-27T18:04:33Z</time>
      </trkpt>
      <trkpt lat="56.3296288" lon="13.6463746">
        <ele>117.418</ele>
        <time>2014-05-27T18:04:36Z</time>
      </trkpt>
      <trkpt lat="56.3296604" lon="13.6461206">
        <ele>117.418</ele>
        <time>2014-05-27T18:04:42Z</time>
      </trkpt>
      <trkpt lat="56.3297208" lon="13.6458891">
        <ele>118.379</ele>
        <time>2014-05-27T18:04:48Z</time>
      </trkpt>
      <trkpt lat="56.3297614" lon="13.6456346">
        <ele>118.379</ele>
        <time>2014-05-27T18:04:53Z</time>
      </trkpt>
      <trkpt lat="56.3297738" lon="13.6453195">
        <ele>118.379</ele>
        <time>2014-05-27T18:04:59Z</time>
      </trkpt>
      <trkpt lat="56.3297737" lon="13.6452702">
        <ele>117.899</ele>
        <time>2014-05-27T18:05:00Z</time>
      </trkpt>
      <trkpt lat="56.3298055" lon="13.6449997">
        <ele>117.899</ele>
        <time>2014-05-27T18:05:06Z</time>
      </trkpt>
      <trkpt lat="56.3298273" lon="13.6448682">
        <ele>118.379</ele>
        <time>2014-05-27T18:05:09Z</time>
      </trkpt>
      <trkpt lat="56.3298917" lon="13.644634">
        <ele>117.418</ele>
        <time>2014-05-27T18:05:15Z</time>
      </trkpt>
      <trkpt lat="56.3299523" lon="13.6444173">
        <ele>115.976</ele>
        <time>2014-05-27T18:05:20Z</time>
      </trkpt>
      <trkpt lat="56.3299857" lon="13.6441967">
        <ele>115.496</ele>
        <time>2014-05-27T18:05:24Z</time>
      </trkpt>
      <trkpt lat="56.3300639" lon="13.6438471">
        <ele>115.015</ele>
        <time>2014-05-27T18:05:31Z</time>
      </trkpt>
      <trkpt lat="56.3301716" lon="13.6436468">
        <ele>114.534</ele>
        <time>2014-05-27T18:05:37Z</time>
      </trkpt>
      <trkpt lat="56.3302804" lon="13.6434552">
        <ele>113.092</ele>
        <time>2014-05-27T18:05:43Z</time>
      </trkpt>
      <trkpt lat="56.3303735" lon="13.6432033">
        <ele>112.612</ele>
        <time>2014-05-27T18:05:49Z</time>
      </trkpt>
      <trkpt lat="56.3304715" lon="13.6429282">
        <ele>111.17</ele>
        <time>2014-05-27T18:05:56Z</time>
      </trkpt>
      <trkpt lat="56.330528" lon="13.6427003">
        <ele>111.17</ele>
        <time>2014-05-27T18:06:01Z</time>
      </trkpt>
      <trkpt lat="56.3305563" lon="13.6426139">
        <ele>110.689</ele>
        <time>2014-05-27T18:06:03Z</time>
      </trkpt>
      <trkpt lat="56.3305818" lon="13.6423051">
        <ele>110.208</ele>
        <time>2014-05-27T18:06:09Z</time>
      </trkpt>
      <trkpt lat="56.3306069" lon="13.642049">
        <ele>109.247</ele>
        <time>2014-05-27T18:06:14Z</time>
      </trkpt>
      <trkpt lat="56.3306309" lon="13.6418487">
        <ele>109.728</ele>
        <time>2014-05-27T18:06:18Z</time>
      </trkpt>
      <trkpt lat="56.3307042" lon="13.6416575">
        <ele>109.728</ele>
        <time>2014-05-27T18:06:23Z</time>
      </trkpt>
      <trkpt lat="56.3307482" lon="13.6416171">
        <ele>109.728</ele>
        <time>2014-05-27T18:06:25Z</time>
      </trkpt>
      <trkpt lat="56.3308402" lon="13.6416803">
        <ele>110.208</ele>
        <time>2014-05-27T18:06:29Z</time>
      </trkpt>
      <trkpt lat="56.3309709" lon="13.6418822">
        <ele>111.17</ele>
        <time>2014-05-27T18:06:36Z</time>
      </trkpt>
      <trkpt lat="56.331008" lon="13.6419444">
        <ele>112.131</ele>
        <time>2014-05-27T18:06:38Z</time>
      </trkpt>
      <trkpt lat="56.3311218" lon="13.6420905">
        <ele>113.573</ele>
        <time>2014-05-27T18:06:43Z</time>
      </trkpt>
      <trkpt lat="56.3312248" lon="13.6422552">
        <ele>114.534</ele>
        <time>2014-05-27T18:06:48Z</time>
      </trkpt>
      <trkpt lat="56.3313408" lon="13.6423938">
        <ele>115.976</ele>
        <time>2014-05-27T18:06:53Z</time>
      </trkpt>
      <trkpt lat="56.3314633" lon="13.6425822">
        <ele>116.938</ele>
        <time>2014-05-27T18:06:59Z</time>
      </trkpt>
      <trkpt lat="56.3314858" lon="13.642616">
        <ele>116.938</ele>
        <time>2014-05-27T18:07:00Z</time>
      </trkpt>
      <trkpt lat="56.3315849" lon="13.6427654">
        <ele>117.418</ele>
        <time>2014-05-27T18:07:05Z</time>
      </trkpt>
      <trkpt lat="56.3317074" lon="13.6429097">
        <ele>118.379</ele>
        <time>2014-05-27T18:07:11Z</time>
      </trkpt>
      <trkpt lat="56.3318371" lon="13.6430707">
        <ele>119.341</ele>
        <time>2014-05-27T18:07:17Z</time>
      </trkpt>
      <trkpt lat="56.3319234" lon="13.6432173">
        <ele>120.302</ele>
        <time>2014-05-27T18:07:22Z</time>
      </trkpt>
      <trkpt lat="56.3320587" lon="13.6433841">
        <ele>121.264</ele>
        <time>2014-05-27T18:07:28Z</time>
      </trkpt>
      <trkpt lat="56.332078" lon="13.6434158">
        <ele>121.744</ele>
        <time>2014-05-27T18:07:29Z</time>
      </trkpt>
      <trkpt lat="56.3322037" lon="13.6435354">
        <ele>122.225</ele>
        <time>2014-05-27T18:07:34Z</time>
      </trkpt>
      <trkpt lat="56.3322235" lon="13.6435581">
        <ele>122.705</ele>
        <time>2014-05-27T18:07:35Z</time>
      </trkpt>
      <trkpt lat="56.3323783" lon="13.6437434">
        <ele>123.186</ele>
        <time>2014-05-27T18:07:42Z</time>
      </trkpt>
      <trkpt lat="56.332515" lon="13.643915">
        <ele>123.667</ele>
        <time>2014-05-27T18:07:48Z</time>
      </trkpt>
      <trkpt lat="56.3326491" lon="13.6440714">
        <ele>123.667</ele>
        <time>2014-05-27T18:07:54Z</time>
      </trkpt>
      <trkpt lat="56.3327435" lon="13.6442104">
        <ele>124.147</ele>
        <time>2014-05-27T18:07:59Z</time>
      </trkpt>
      <trkpt lat="56.3328321" lon="13.6443407">
        <ele>125.109</ele>
        <time>2014-05-27T18:08:04Z</time>
      </trkpt>
      <trkpt lat="56.3329383" lon="13.6444978">
        <ele>125.109</ele>
        <time>2014-05-27T18:08:10Z</time>
      </trkpt>
      <trkpt lat="56.3330382" lon="13.6446061">
        <ele>125.109</ele>
        <time>2014-05-27T18:08:15Z</time>
      </trkpt>
      <trkpt lat="56.3331595" lon="13.6447568">
        <ele>125.109</ele>
        <time>2014-05-27T18:08:21Z</time>
      </trkpt>
      <trkpt lat="56.333288" lon="13.6449324">
        <ele>124.147</ele>
        <time>2014-05-27T18:08:27Z</time>
      </trkpt>
      <trkpt lat="56.3334152" lon="13.6451339">
        <ele>124.147</ele>
        <time>2014-05-27T18:08:33Z</time>
      </trkpt>
      <trkpt lat="56.3335118" lon="13.6453391">
        <ele>124.628</ele>
        <time>2014-05-27T18:08:39Z</time>
      </trkpt>
      <trkpt lat="56.3336173" lon="13.6455378">
        <ele>125.109</ele>
        <time>2014-05-27T18:08:45Z</time>
      </trkpt>
      <trkpt lat="56.3336719" lon="13.6456933">
        <ele>125.109</ele>
        <time>2014-05-27T18:08:49Z</time>
      </trkpt>
      <trkpt lat="56.3337511" lon="13.6456954">
        <ele>125.109</ele>
        <time>2014-05-27T18:08:53Z</time>
      </trkpt>
      <trkpt lat="56.3338296" lon="13.6456385">
        <ele>125.589</ele>
        <time>2014-05-27T18:08:56Z</time>
      </trkpt>
      <trkpt lat="56.3339063" lon="13.6454233">
        <ele>126.551</ele>
        <time>2014-05-27T18:09:02Z</time>
      </trkpt>
      <trkpt lat="56.3339529" lon="13.6451955">
        <ele>127.031</ele>
        <time>2014-05-27T18:09:08Z</time>
      </trkpt>
      <trkpt lat="56.3339868" lon="13.6449878">
        <ele>127.031</ele>
        <time>2014-05-27T18:09:13Z</time>
      </trkpt>
      <trkpt lat="56.3340282" lon="13.6447309">
        <ele>127.512</ele>
        <time>2014-05-27T18:09:19Z</time>
      </trkpt>
      <trkpt lat="56.3340441" lon="13.64469">
        <ele>127.512</ele>
        <time>2014-05-27T18:09:20Z</time>
      </trkpt>
      <trkpt lat="56.3340821" lon="13.6443494">
        <ele>126.07</ele>
        <time>2014-05-27T18:09:27Z</time>
      </trkpt>
      <trkpt lat="56.3341126" lon="13.644114">
        <ele>125.109</ele>
        <time>2014-05-27T18:09:32Z</time>
      </trkpt>
      <trkpt lat="56.3341296" lon="13.6440255">
        <ele>124.628</ele>
        <time>2014-05-27T18:09:34Z</time>
      </trkpt>
      <trkpt lat="56.3341604" lon="13.6437219">
        <ele>122.705</ele>
        <time>2014-05-27T18:09:40Z</time>
      </trkpt>
      <trkpt lat="56.3341847" lon="13.6436372">
        <ele>122.225</ele>
        <time>2014-05-27T18:09:42Z</time>
      </trkpt>
      <trkpt lat="56.3342731" lon="13.6433037">
        <ele>120.302</ele>
        <time>2014-05-27T18:09:49Z</time>
      </trkpt>
      <trkpt lat="56.334359" lon="13.6430646">
        <ele>120.783</ele>
        <time>2014-05-27T18:09:55Z</time>
      </trkpt>
      <trkpt lat="56.334496" lon="13.6428346">
        <ele>123.186</ele>
        <time>2014-05-27T18:10:01Z</time>
      </trkpt>
      <trkpt lat="56.3346062" lon="13.6426284">
        <ele>123.186</ele>
        <time>2014-05-27T18:10:06Z</time>
      </trkpt>
      <trkpt lat="56.3347085" lon="13.6424945">
        <ele>124.147</ele>
        <time>2014-05-27T18:10:10Z</time>
      </trkpt>
      <trkpt lat="56.3348383" lon="13.6423328">
        <ele>125.589</ele>
        <time>2014-05-27T18:10:15Z</time>
      </trkpt>
      <trkpt lat="56.3349187" lon="13.6421831">
        <ele>126.07</ele>
        <time>2014-05-27T18:10:19Z</time>
      </trkpt>
      <trkpt lat="56.3350579" lon="13.6420543">
        <ele>126.551</ele>
        <time>2014-05-27T18:10:25Z</time>
      </trkpt>
      <trkpt lat="56.3351953" lon="13.6419211">
        <ele>128.954</ele>
        <time>2014-05-27T18:10:31Z</time>
      </trkpt>
      <trkpt lat="56.3353175" lon="13.6418394">
        <ele>130.396</ele>
        <time>2014-05-27T18:10:36Z</time>
      </trkpt>
      <trkpt lat="56.3354594" lon="13.6417503">
        <ele>133.28</ele>
        <time>2014-05-27T18:10:42Z</time>
      </trkpt>
      <trkpt lat="56.3356069" lon="13.6419404">
        <ele>133.28</ele>
        <time>2014-05-27T18:10:49Z</time>
      </trkpt>
      <trkpt lat="56.3356383" lon="13.6420067">
        <ele>133.28</ele>
        <time>2014-05-27T18:10:51Z</time>
      </trkpt>
      <trkpt lat="56.3356682" lon="13.6420766">
        <ele>132.799</ele>
        <time>2014-05-27T18:10:53Z</time>
      </trkpt>
      <trkpt lat="56.3357616" lon="13.6423439">
        <ele>131.838</ele>
        <time>2014-05-27T18:11:00Z</time>
      </trkpt>
      <trkpt lat="56.3358411" lon="13.6425288">
        <ele>131.838</ele>
        <time>2014-05-27T18:11:05Z</time>
      </trkpt>
      <trkpt lat="56.3359519" lon="13.6427845">
        <ele>131.838</ele>
        <time>2014-05-27T18:11:12Z</time>
      </trkpt>
      <trkpt lat="56.3359723" lon="13.6428417">
        <ele>130.877</ele>
        <time>2014-05-27T18:11:14Z</time>
      </trkpt>
      <trkpt lat="56.3361053" lon="13.6429891">
        <ele>130.396</ele>
        <time>2014-05-27T18:11:20Z</time>
      </trkpt>
      <trkpt lat="56.3362133" lon="13.6431109">
        <ele>129.435</ele>
        <time>2014-05-27T18:11:25Z</time>
      </trkpt>
      <trkpt lat="56.3362421" lon="13.6431463">
        <ele>128.954</ele>
        <time>2014-05-27T18:11:27Z</time>
      </trkpt>
      <trkpt lat="56.3363618" lon="13.6432127">
        <ele>128.473</ele>
        <time>2014-05-27T18:11:33Z</time>
      </trkpt>
      <trkpt lat="56.3364736" lon="13.6432731">
        <ele>127.993</ele>
        <time>2014-05-27T18:11:38Z</time>
      </trkpt>
      <trkpt lat="56.3365443" lon="13.6433275">
        <ele>127.993</ele>
        <time>2014-05-27T18:11:41Z</time>
      </trkpt>
      <trkpt lat="56.3366804" lon="13.6433958">
        <ele>127.993</ele>
        <time>2014-05-27T18:11:47Z</time>
      </trkpt>
      <trkpt lat="56.336753" lon="13.6434436">
        <ele>127.993</ele>
        <time>2014-05-27T18:11:50Z</time>
      </trkpt>
      <trkpt lat="56.336883" lon="13.6435795">
        <ele>127.512</ele>
        <time>2014-05-27T18:11:56Z</time>
      </trkpt>
      <trkpt lat="56.3369027" lon="13.6436078">
        <ele>127.993</ele>
        <time>2014-05-27T18:11:57Z</time>
      </trkpt>
      <trkpt lat="56.3369684" lon="13.6437798">
        <ele>127.993</ele>
        <time>2014-05-27T18:12:02Z</time>
      </trkpt>
      <trkpt lat="56.3369861" lon="13.644014">
        <ele>127.993</ele>
        <time>2014-05-27T18:12:08Z</time>
      </trkpt>
      <trkpt lat="56.3369865" lon="13.6442078">
        <ele>127.512</ele>
        <time>2014-05-27T18:12:13Z</time>
      </trkpt>
      <trkpt lat="56.3369916" lon="13.644362">
        <ele>126.551</ele>
        <time>2014-05-27T18:12:17Z</time>
      </trkpt>
      <trkpt lat="56.3370164" lon="13.6445909">
        <ele>125.589</ele>
        <time>2014-05-27T18:12:22Z</time>
      </trkpt>
      <trkpt lat="56.3370543" lon="13.6447923">
        <ele>125.109</ele>
        <time>2014-05-27T18:12:26Z</time>
      </trkpt>
      <trkpt lat="56.3371502" lon="13.645067">
        <ele>124.628</ele>
        <time>2014-05-27T18:12:32Z</time>
      </trkpt>
      <trkpt lat="56.3371663" lon="13.6452411">
        <ele>123.667</ele>
        <time>2014-05-27T18:12:36Z</time>
      </trkpt>
      <trkpt lat="56.3371658" lon="13.6454773">
        <ele>121.744</ele>
        <time>2014-05-27T18:12:41Z</time>
      </trkpt>
      <trkpt lat="56.3372044" lon="13.6458767">
        <ele>121.264</ele>
        <time>2014-05-27T18:12:49Z</time>
      </trkpt>
      <trkpt lat="56.337273" lon="13.6461906">
        <ele>121.264</ele>
        <time>2014-05-27T18:12:55Z</time>
      </trkpt>
      <trkpt lat="56.337285" lon="13.6462405">
        <ele>121.264</ele>
        <time>2014-05-27T18:12:56Z</time>
      </trkpt>
      <trkpt lat="56.3374242" lon="13.6464958">
        <ele>121.744</ele>
        <time>2014-05-27T18:13:03Z</time>
      </trkpt>
      <trkpt lat="56.3375362" lon="13.6466392">
        <ele>122.225</ele>
        <time>2014-05-27T18:13:08Z</time>
      </trkpt>
      <trkpt lat="56.3376653" lon="13.6467411">
        <ele>122.705</ele>
        <time>2014-05-27T18:13:14Z</time>
      </trkpt>
      <trkpt lat="56.3377913" lon="13.6468761">
        <ele>123.186</ele>
        <time>2014-05-27T18:13:20Z</time>
      </trkpt>
      <trkpt lat="56.3379017" lon="13.6469863">
        <ele>123.186</ele>
        <time>2014-05-27T18:13:26Z</time>
      </trkpt>
      <trkpt lat="56.3380148" lon="13.6471412">
        <ele>121.744</ele>
        <time>2014-05-27T18:13:32Z</time>
      </trkpt>
      <trkpt lat="56.3380552" lon="13.6473178">
        <ele>120.783</ele>
        <time>2014-05-27T18:13:37Z</time>
      </trkpt>
      <trkpt lat="56.3380459" lon="13.6475598">
        <ele>119.341</ele>
        <time>2014-05-27T18:13:43Z</time>
      </trkpt>
      <trkpt lat="56.338048" lon="13.6477166">
        <ele>119.341</ele>
        <time>2014-05-27T18:13:47Z</time>
      </trkpt>
      <trkpt lat="56.3381247" lon="13.6478279">
        <ele>119.341</ele>
        <time>2014-05-27T18:13:52Z</time>
      </trkpt>
      <trkpt lat="56.3381422" lon="13.6478307">
        <ele>119.341</ele>
        <time>2014-05-27T18:13:53Z</time>
      </trkpt>
      <trkpt lat="56.3382125" lon="13.6477996">
        <ele>119.821</ele>
        <time>2014-05-27T18:13:57Z</time>
      </trkpt>
      <trkpt lat="56.3383325" lon="13.6478031">
        <ele>120.302</ele>
        <time>2014-05-27T18:14:01Z</time>
      </trkpt>
      <trkpt lat="56.3384452" lon="13.647842">
        <ele>120.783</ele>
        <time>2014-05-27T18:14:05Z</time>
      </trkpt>
      <trkpt lat="56.3384741" lon="13.6479475">
        <ele>120.302</ele>
        <time>2014-05-27T18:14:08Z</time>
      </trkpt>
      <trkpt lat="56.3384739" lon="13.6480637">
        <ele>119.821</ele>
        <time>2014-05-27T18:14:11Z</time>
      </trkpt>
      <trkpt lat="56.3384841" lon="13.6483371">
        <ele>119.341</ele>
        <time>2014-05-27T18:14:17Z</time>
      </trkpt>
      <trkpt lat="56.3385141" lon="13.6485184">
        <ele>119.341</ele>
        <time>2014-05-27T18:14:21Z</time>
      </trkpt>
      <trkpt lat="56.3385811" lon="13.6487372">
        <ele>119.821</ele>
        <time>2014-05-27T18:14:26Z</time>
      </trkpt>
      <trkpt lat="56.3385855" lon="13.6487775">
        <ele>120.302</ele>
        <time>2014-05-27T18:14:27Z</time>
      </trkpt>
      <trkpt lat="56.3385898" lon="13.6489329">
        <ele>120.302</ele>
        <time>2014-05-27T18:14:31Z</time>
      </trkpt>
      <trkpt lat="56.3385409" lon="13.649112">
        <ele>120.302</ele>
        <time>2014-05-27T18:14:35Z</time>
      </trkpt>
      <trkpt lat="56.338451" lon="13.6493788">
        <ele>119.821</ele>
        <time>2014-05-27T18:14:41Z</time>
      </trkpt>
      <trkpt lat="56.3384094" lon="13.6497438">
        <ele>118.86</ele>
        <time>2014-05-27T18:14:48Z</time>
      </trkpt>
      <trkpt lat="56.3383845" lon="13.6499824">
        <ele>118.379</ele>
        <time>2014-05-27T18:14:53Z</time>
      </trkpt>
      <trkpt lat="56.338349" lon="13.6501905">
        <ele>117.899</ele>
        <time>2014-05-27T18:14:58Z</time>
      </trkpt>
      <trkpt lat="56.3383349" lon="13.6504294">
        <ele>116.938</ele>
        <time>2014-05-27T18:15:04Z</time>
      </trkpt>
      <trkpt lat="56.3383769" lon="13.6506813">
        <ele>117.899</ele>
        <time>2014-05-27T18:15:09Z</time>
      </trkpt>
      <trkpt lat="56.3384556" lon="13.6509543">
        <ele>118.379</ele>
        <time>2014-05-27T18:15:14Z</time>
      </trkpt>
      <trkpt lat="56.3385371" lon="13.6512043">
        <ele>118.379</ele>
        <time>2014-05-27T18:15:19Z</time>
      </trkpt>
      <trkpt lat="56.3386219" lon="13.6514436">
        <ele>118.379</ele>
        <time>2014-05-27T18:15:24Z</time>
      </trkpt>
      <trkpt lat="56.3386318" lon="13.6514677">
        <ele>117.899</ele>
        <time>2014-05-27T18:15:25Z</time>
      </trkpt>
      <trkpt lat="56.3386603" lon="13.6515131">
        <ele>117.899</ele>
        <time>2014-05-27T18:15:28Z</time>
      </trkpt>
      <trkpt lat="56.3387213" lon="13.6516225">
        <ele>117.418</ele>
        <time>2014-05-27T18:15:34Z</time>
      </trkpt>
      <trkpt lat="56.3388006" lon="13.6517437">
        <ele>117.899</ele>
        <time>2014-05-27T18:15:40Z</time>
      </trkpt>
      <trkpt lat="56.3388421" lon="13.6518007">
        <ele>118.86</ele>
        <time>2014-05-27T18:15:44Z</time>
      </trkpt>
      <trkpt lat="56.3388702" lon="13.651855">
        <ele>119.341</ele>
        <time>2014-05-27T18:15:48Z</time>
      </trkpt>
      <trkpt lat="56.3389116" lon="13.6519121">
        <ele>119.341</ele>
        <time>2014-05-27T18:15:53Z</time>
      </trkpt>
      <trkpt lat="56.3389799" lon="13.6520113">
        <ele>119.821</ele>
        <time>2014-05-27T18:16:00Z</time>
      </trkpt>
      <trkpt lat="56.3390009" lon="13.6520305">
        <ele>119.821</ele>
        <time>2014-05-27T18:16:03Z</time>
      </trkpt>
      <trkpt lat="56.3390607" lon="13.6520955">
        <ele>119.341</ele>
        <time>2014-05-27T18:16:09Z</time>
      </trkpt>
      <trkpt lat="56.3391375" lon="13.6521642">
        <ele>118.86</ele>
        <time>2014-05-27T18:16:15Z</time>
      </trkpt>
      <trkpt lat="56.3391948" lon="13.6522242">
        <ele>117.899</ele>
        <time>2014-05-27T18:16:20Z</time>
      </trkpt>
      <trkpt lat="56.3392042" lon="13.6522328">
        <ele>117.899</ele>
        <time>2014-05-27T18:16:21Z</time>
      </trkpt>
      <trkpt lat="56.3392777" lon="13.6522761">
        <ele>116.938</ele>
        <time>2014-05-27T18:16:27Z</time>
      </trkpt>
      <trkpt lat="56.3393972" lon="13.6523748">
        <ele>116.457</ele>
        <time>2014-05-27T18:16:37Z</time>
      </trkpt>
      <trkpt lat="56.3395056" lon="13.6524328">
        <ele>115.976</ele>
        <time>2014-05-27T18:16:45Z</time>
      </trkpt>
      <trkpt lat="56.3395953" lon="13.6525083">
        <ele>114.534</ele>
        <time>2014-05-27T18:16:53Z</time>
      </trkpt>
      <trkpt lat="56.3396564" lon="13.6525337">
        <ele>114.054</ele>
        <time>2014-05-27T18:16:59Z</time>
      </trkpt>
      <trkpt lat="56.3397227" lon="13.6525763">
        <ele>112.612</ele>
        <time>2014-05-27T18:17:05Z</time>
      </trkpt>
      <trkpt lat="56.3398124" lon="13.6526311">
        <ele>112.131</ele>
        <time>2014-05-27T18:17:12Z</time>
      </trkpt>
      <trkpt lat="56.339917" lon="13.6526855">
        <ele>113.573</ele>
        <time>2014-05-27T18:17:18Z</time>
      </trkpt>
      <trkpt lat="56.3400309" lon="13.6527251">
        <ele>114.534</ele>
        <time>2014-05-27T18:17:25Z</time>
      </trkpt>
      <trkpt lat="56.3401239" lon="13.6527695">
        <ele>115.496</ele>
        <time>2014-05-27T18:17:31Z</time>
      </trkpt>
      <trkpt lat="56.3401718" lon="13.6528024">
        <ele>115.496</ele>
        <time>2014-05-27T18:17:34Z</time>
      </trkpt>
      <trkpt lat="56.3402298" lon="13.6528429">
        <ele>115.976</ele>
        <time>2014-05-27T18:17:38Z</time>
      </trkpt>
      <trkpt lat="56.3402709" lon="13.6528725">
        <ele>115.976</ele>
        <time>2014-05-27T18:17:41Z</time>
      </trkpt>
      <trkpt lat="56.3403131" lon="13.6529035">
        <ele>115.015</ele>
        <time>2014-05-27T18:17:46Z</time>
      </trkpt>
      <trkpt lat="56.3404058" lon="13.6529574">
        <ele>115.015</ele>
        <time>2014-05-27T18:17:52Z</time>
      </trkpt>
      <trkpt lat="56.340482" lon="13.6530057">
        <ele>114.054</ele>
        <time>2014-05-27T18:17:58Z</time>
      </trkpt>
      <trkpt lat="56.3405826" lon="13.653056">
        <ele>113.092</ele>
        <time>2014-05-27T18:18:05Z</time>
      </trkpt>
      <trkpt lat="56.340665" lon="13.6530932">
        <ele>112.131</ele>
        <time>2014-05-27T18:18:11Z</time>
      </trkpt>
      <trkpt lat="56.3406898" lon="13.6531092">
        <ele>111.65</ele>
        <time>2014-05-27T18:18:13Z</time>
      </trkpt>
      <trkpt lat="56.3407779" lon="13.65316">
        <ele>110.689</ele>
        <time>2014-05-27T18:18:20Z</time>
      </trkpt>
      <trkpt lat="56.3408441" lon="13.6531914">
        <ele>110.689</ele>
        <time>2014-05-27T18:18:25Z</time>
      </trkpt>
      <trkpt lat="56.3408995" lon="13.653229">
        <ele>111.65</ele>
        <time>2014-05-27T18:18:30Z</time>
      </trkpt>
      <trkpt lat="56.3409937" lon="13.6532668">
        <ele>112.612</ele>
        <time>2014-05-27T18:18:37Z</time>
      </trkpt>
      <trkpt lat="56.3410788" lon="13.653301">
        <ele>111.65</ele>
        <time>2014-05-27T18:18:43Z</time>
      </trkpt>
      <trkpt lat="56.3411778" lon="13.6533149">
        <ele>110.208</ele>
        <time>2014-05-27T18:18:49Z</time>
      </trkpt>
      <trkpt lat="56.3412845" lon="13.6533512">
        <ele>109.728</ele>
        <time>2014-05-27T18:18:56Z</time>
      </trkpt>
      <trkpt lat="56.341384" lon="13.6533773">
        <ele>111.17</ele>
        <time>2014-05-27T18:19:03Z</time>
      </trkpt>
      <trkpt lat="56.3414799" lon="13.6533988">
        <ele>110.689</ele>
        <time>2014-05-27T18:19:10Z</time>
      </trkpt>
      <trkpt lat="56.3415642" lon="13.6534055">
        <ele>108.766</ele>
        <time>2014-05-27T18:19:17Z</time>
      </trkpt>
      <trkpt lat="56.3416259" lon="13.653412">
        <ele>109.247</ele>
        <time>2014-05-27T18:19:23Z</time>
      </trkpt>
      <trkpt lat="56.3416999" lon="13.6534103">
        <ele>109.247</ele>
        <time>2014-05-27T18:19:29Z</time>
      </trkpt>
      <trkpt lat="56.3417707" lon="13.6533823">
        <ele>107.324</ele>
        <time>2014-05-27T18:19:34Z</time>
      </trkpt>
      <trkpt lat="56.341808" lon="13.6533638">
        <ele>106.363</ele>
        <time>2014-05-27T18:19:37Z</time>
      </trkpt>
      <trkpt lat="56.3418781" lon="13.6533563">
        <ele>105.402</ele>
        <time>2014-05-27T18:19:42Z</time>
      </trkpt>
      <trkpt lat="56.3419865" lon="13.6533424">
        <ele>102.037</ele>
        <time>2014-05-27T18:19:49Z</time>
      </trkpt>
      <trkpt lat="56.3420951" lon="13.6533395">
        <ele>100.115</ele>
        <time>2014-05-27T18:19:56Z</time>
      </trkpt>
      <trkpt lat="56.342175" lon="13.6533286">
        <ele>98.1919</ele>
        <time>2014-05-27T18:20:02Z</time>
      </trkpt>
      <trkpt lat="56.3422471" lon="13.6533219">
        <ele>97.7112</ele>
        <time>2014-05-27T18:20:08Z</time>
      </trkpt>
      <trkpt lat="56.3423273" lon="13.6532729">
        <ele>99.1531</ele>
        <time>2014-05-27T18:20:14Z</time>
      </trkpt>
      <trkpt lat="56.3424016" lon="13.6531836">
        <ele>100.595</ele>
        <time>2014-05-27T18:20:20Z</time>
      </trkpt>
      <trkpt lat="56.3424626" lon="13.6530495">
        <ele>101.076</ele>
        <time>2014-05-27T18:20:26Z</time>
      </trkpt>
      <trkpt lat="56.3424733" lon="13.6530326">
        <ele>100.595</ele>
        <time>2014-05-27T18:20:27Z</time>
      </trkpt>
      <trkpt lat="56.342478" lon="13.6528642">
        <ele>100.115</ele>
        <time>2014-05-27T18:20:34Z</time>
      </trkpt>
      <trkpt lat="56.3424749" lon="13.6528393">
        <ele>99.6338</ele>
        <time>2014-05-27T18:20:35Z</time>
      </trkpt>
      <trkpt lat="56.3424802" lon="13.6526725">
        <ele>98.1919</ele>
        <time>2014-05-27T18:20:41Z</time>
      </trkpt>
      <trkpt lat="56.3424712" lon="13.6524782">
        <ele>96.7499</ele>
        <time>2014-05-27T18:20:48Z</time>
      </trkpt>
      <trkpt lat="56.3424718" lon="13.6522991">
        <ele>95.7885</ele>
        <time>2014-05-27T18:20:54Z</time>
      </trkpt>
      <trkpt lat="56.342551" lon="13.65223">
        <ele>95.7885</ele>
        <time>2014-05-27T18:21:01Z</time>
      </trkpt>
      <trkpt lat="56.3426617" lon="13.6522287">
        <ele>97.2305</ele>
        <time>2014-05-27T18:21:09Z</time>
      </trkpt>
      <trkpt lat="56.3427349" lon="13.6522431">
        <ele>97.2305</ele>
        <time>2014-05-27T18:21:14Z</time>
      </trkpt>
      <trkpt lat="56.3428586" lon="13.6522306">
        <ele>95.3077</ele>
        <time>2014-05-27T18:21:23Z</time>
      </trkpt>
      <trkpt lat="56.3428903" lon="13.6522286">
        <ele>95.3077</ele>
        <time>2014-05-27T18:21:25Z</time>
      </trkpt>
      <trkpt lat="56.3429526" lon="13.652216">
        <ele>95.7885</ele>
        <time>2014-05-27T18:21:29Z</time>
      </trkpt>
      <trkpt lat="56.343029" lon="13.6522083">
        <ele>95.7885</ele>
        <time>2014-05-27T18:21:33Z</time>
      </trkpt>
      <trkpt lat="56.3431785" lon="13.6521527">
        <ele>98.1919</ele>
        <time>2014-05-27T18:21:41Z</time>
      </trkpt>
      <trkpt lat="56.3432701" lon="13.6521214">
        <ele>99.1531</ele>
        <time>2014-05-27T18:21:46Z</time>
      </trkpt>
      <trkpt lat="56.3432882" lon="13.6521141">
        <ele>99.6338</ele>
        <time>2014-05-27T18:21:47Z</time>
      </trkpt>
      <trkpt lat="56.3433494" lon="13.6520763">
        <ele>101.076</ele>
        <time>2014-05-27T18:21:51Z</time>
      </trkpt>
      <trkpt lat="56.3434516" lon="13.6520007">
        <ele>102.998</ele>
        <time>2014-05-27T18:21:59Z</time>
      </trkpt>
      <trkpt lat="56.3435475" lon="13.6519587">
        <ele>103.96</ele>
        <time>2014-05-27T18:22:05Z</time>
      </trkpt>
      <trkpt lat="56.3436169" lon="13.6519054">
        <ele>105.882</ele>
        <time>2014-05-27T18:22:10Z</time>
      </trkpt>
      <trkpt lat="56.343689" lon="13.6518497">
        <ele>107.324</ele>
        <time>2014-05-27T18:22:15Z</time>
      </trkpt>
      <trkpt lat="56.3437963" lon="13.6517261">
        <ele>108.286</ele>
        <time>2014-05-27T18:22:24Z</time>
      </trkpt>
      <trkpt lat="56.3438886" lon="13.6516627">
        <ele>108.766</ele>
        <time>2014-05-27T18:22:30Z</time>
      </trkpt>
      <trkpt lat="56.3440129" lon="13.6516681">
        <ele>109.247</ele>
        <time>2014-05-27T18:22:35Z</time>
      </trkpt>
      <trkpt lat="56.3441946" lon="13.651691">
        <ele>108.766</ele>
        <time>2014-05-27T18:22:41Z</time>
      </trkpt>
      <trkpt lat="56.3443181" lon="13.6515666">
        <ele>109.247</ele>
        <time>2014-05-27T18:22:46Z</time>
      </trkpt>
      <trkpt lat="56.344453" lon="13.6514075">
        <ele>109.728</ele>
        <time>2014-05-27T18:22:52Z</time>
      </trkpt>
      <trkpt lat="56.3445873" lon="13.6512956">
        <ele>111.17</ele>
        <time>2014-05-27T18:22:58Z</time>
      </trkpt>
      <trkpt lat="56.3446882" lon="13.6511932">
        <ele>112.131</ele>
        <time>2014-05-27T18:23:03Z</time>
      </trkpt>
      <trkpt lat="56.3448177" lon="13.6510781">
        <ele>114.054</ele>
        <time>2014-05-27T18:23:09Z</time>
      </trkpt>
      <trkpt lat="56.3449246" lon="13.6509701">
        <ele>114.534</ele>
        <time>2014-05-27T18:23:14Z</time>
      </trkpt>
      <trkpt lat="56.3450573" lon="13.6508481">
        <ele>115.496</ele>
        <time>2014-05-27T18:23:20Z</time>
      </trkpt>
      <trkpt lat="56.3451939" lon="13.6506861">
        <ele>115.976</ele>
        <time>2014-05-27T18:23:26Z</time>
      </trkpt>
      <trkpt lat="56.3452975" lon="13.6505599">
        <ele>115.976</ele>
        <time>2014-05-27T18:23:31Z</time>
      </trkpt>
      <trkpt lat="56.3454527" lon="13.6503806">
        <ele>116.938</ele>
        <time>2014-05-27T18:23:38Z</time>
      </trkpt>
      <trkpt lat="56.3455674" lon="13.6502586">
        <ele>116.938</ele>
        <time>2014-05-27T18:23:43Z</time>
      </trkpt>
      <trkpt lat="56.3456789" lon="13.6501586">
        <ele>118.379</ele>
        <time>2014-05-27T18:23:47Z</time>
      </trkpt>
      <trkpt lat="56.3457822" lon="13.6500615">
        <ele>119.341</ele>
        <time>2014-05-27T18:23:51Z</time>
      </trkpt>
      <trkpt lat="56.3458798" lon="13.6499747">
        <ele>119.821</ele>
        <time>2014-05-27T18:23:55Z</time>
      </trkpt>
      <trkpt lat="56.3460125" lon="13.6498364">
        <ele>119.821</ele>
        <time>2014-05-27T18:24:01Z</time>
      </trkpt>
      <trkpt lat="56.3461267" lon="13.6497049">
        <ele>120.302</ele>
        <time>2014-05-27T18:24:06Z</time>
      </trkpt>
      <trkpt lat="56.346204" lon="13.6495917">
        <ele>120.783</ele>
        <time>2014-05-27T18:24:10Z</time>
      </trkpt>
      <trkpt lat="56.3463139" lon="13.6494479">
        <ele>121.744</ele>
        <time>2014-05-27T18:24:16Z</time>
      </trkpt>
      <trkpt lat="56.3463853" lon="13.6493972">
        <ele>122.705</ele>
        <time>2014-05-27T18:24:19Z</time>
      </trkpt>
      <trkpt lat="56.3465013" lon="13.6492516">
        <ele>123.186</ele>
        <time>2014-05-27T18:24:24Z</time>
      </trkpt>
      <trkpt lat="56.3465261" lon="13.649222">
        <ele>123.186</ele>
        <time>2014-05-27T18:24:25Z</time>
      </trkpt>
      <trkpt lat="56.3466358" lon="13.6490931">
        <ele>123.667</ele>
        <time>2014-05-27T18:24:30Z</time>
      </trkpt>
      <trkpt lat="56.3467132" lon="13.6490421">
        <ele>124.628</ele>
        <time>2014-05-27T18:24:33Z</time>
      </trkpt>
      <trkpt lat="56.3468544" lon="13.6489002">
        <ele>125.589</ele>
        <time>2014-05-27T18:24:39Z</time>
      </trkpt>
      <trkpt lat="56.3469908" lon="13.6487367">
        <ele>126.07</ele>
        <time>2014-05-27T18:24:45Z</time>
      </trkpt>
      <trkpt lat="56.3470933" lon="13.6485828">
        <ele>126.551</ele>
        <time>2014-05-27T18:24:50Z</time>
      </trkpt>
      <trkpt lat="56.3472234" lon="13.6484177">
        <ele>127.512</ele>
        <time>2014-05-27T18:24:56Z</time>
      </trkpt>
      <trkpt lat="56.3472831" lon="13.6483274">
        <ele>128.473</ele>
        <time>2014-05-27T18:24:59Z</time>
      </trkpt>
      <trkpt lat="56.3474587" lon="13.64813">
        <ele>129.435</ele>
        <time>2014-05-27T18:25:07Z</time>
      </trkpt>
      <trkpt lat="56.3475761" lon="13.6479701">
        <ele>129.915</ele>
        <time>2014-05-27T18:25:13Z</time>
      </trkpt>
      <trkpt lat="56.3477192" lon="13.6478416">
        <ele>131.357</ele>
        <time>2014-05-27T18:25:19Z</time>
      </trkpt>
      <trkpt lat="56.3478556" lon="13.6476885">
        <ele>133.76</ele>
        <time>2014-05-27T18:25:25Z</time>
      </trkpt>
      <trkpt lat="56.3479645" lon="13.6475811">
        <ele>133.76</ele>
        <time>2014-05-27T18:25:30Z</time>
      </trkpt>
      <trkpt lat="56.3480856" lon="13.6474317">
        <ele>132.799</ele>
        <time>2014-05-27T18:25:36Z</time>
      </trkpt>
      <trkpt lat="56.3481894" lon="13.6473179">
        <ele>132.799</ele>
        <time>2014-05-27T18:25:41Z</time>
      </trkpt>
      <trkpt lat="56.3483026" lon="13.647191">
        <ele>132.319</ele>
        <time>2014-05-27T18:25:46Z</time>
      </trkpt>
      <trkpt lat="56.3484248" lon="13.6470747">
        <ele>132.319</ele>
        <time>2014-05-27T18:25:51Z</time>
      </trkpt>
      <trkpt lat="56.3485489" lon="13.6469214">
        <ele>131.838</ele>
        <time>2014-05-27T18:25:57Z</time>
      </trkpt>
      <trkpt lat="56.3486838" lon="13.6467487">
        <ele>129.915</ele>
        <time>2014-05-27T18:26:03Z</time>
      </trkpt>
    </trkseg>
  </trk>
</gpx>